createdAt,value
2017-06-14T00:00:55.716Z,99.99
2017-06-14T00:01:55.708Z,99.99
2017-06-14T00:02:55.376Z,99.99
2017-06-14T00:03:56.311Z,99.99
2017-06-14T00:04:55.723Z,99.99
2017-06-14T00:05:55.702Z,99.99
2017-06-14T00:06:55.668Z,99.99
2017-06-14T00:07:55.371Z,99.99
2017-06-14T00:08:55.651Z,99.99
2017-06-14T00:09:55.318Z,99.99
2017-06-14T00:10:55.633Z,99.99
2017-06-14T00:11:55.671Z,99.99
2017-06-14T00:12:55.718Z,99.99
2017-06-14T00:13:55.606Z,99.99
2017-06-14T00:14:55.614Z,99.99
2017-06-14T00:15:55.266Z,99.99
2017-06-14T00:16:55.258Z,99.99
2017-06-14T00:17:55.976Z,99.99
2017-06-14T00:18:55.564Z,99.99
2017-06-14T00:19:55.904Z,99.99
2017-06-14T00:20:55.916Z,99.99
2017-06-14T00:21:55.538Z,99.99
2017-06-14T00:22:55.531Z,99.99
2017-06-14T00:23:55.529Z,99.99
2017-06-14T00:24:55.880Z,99.99
2017-06-14T00:25:55.554Z,99.99
2017-06-14T00:26:55.171Z,99.99
2017-06-14T00:27:55.498Z,99.99
2017-06-14T00:28:55.473Z,99.99
2017-06-14T00:29:55.465Z,99.99
2017-06-14T00:30:55.132Z,99.99
2017-06-14T00:31:55.142Z,99.99
2017-06-14T00:32:55.117Z,99.99
2017-06-14T00:33:55.434Z,99.99
2017-06-14T00:34:55.102Z,99.99
2017-06-14T00:35:55.090Z,99.99
2017-06-14T00:36:55.406Z,99.99
2017-06-14T00:37:55.393Z,99.99
2017-06-14T00:38:55.387Z,99.99
2017-06-14T00:39:55.376Z,99.99
2017-06-14T00:40:55.048Z,99.99
2017-06-14T00:41:55.364Z,99.99
2017-06-14T00:42:55.350Z,99.99
2017-06-14T00:43:55.019Z,99.99
2017-06-14T00:44:55.010Z,99.99
2017-06-14T00:45:54.999Z,99.99
2017-06-14T00:46:54.989Z,99.99
2017-06-14T00:47:54.985Z,99.99
2017-06-14T00:48:55.295Z,99.99
2017-06-14T00:49:54.966Z,99.99
2017-06-14T00:50:54.957Z,99.99
2017-06-14T00:51:54.964Z,99.99
2017-06-14T00:52:54.939Z,99.99
2017-06-14T00:53:54.930Z,99.99
2017-06-14T00:54:54.919Z,99.99
2017-06-14T00:55:55.233Z,99.99
2017-06-14T00:56:55.227Z,99.99
2017-06-14T00:57:54.892Z,99.99
2017-06-14T00:58:55.215Z,99.99
2017-06-14T00:59:55.197Z,99.99
2017-06-14T01:00:54.866Z,99.99
2017-06-14T01:01:55.179Z,99.99
2017-06-14T01:02:55.143Z,99.99
2017-06-14T01:03:55.134Z,99.99
2017-06-14T01:04:55.124Z,99.99
2017-06-14T01:05:55.116Z,99.99
2017-06-14T01:06:54.792Z,99.99
2017-06-14T01:07:54.780Z,99.99
2017-06-14T01:08:55.108Z,99.99
2017-06-14T01:09:55.088Z,99.99
2017-06-14T01:10:54.756Z,99.99
2017-06-14T01:11:55.062Z,99.99
2017-06-14T01:12:54.735Z,99.99
2017-06-14T01:13:54.729Z,99.99
2017-06-14T01:14:55.033Z,99.99
2017-06-14T01:15:54.710Z,99.99
2017-06-14T01:16:54.720Z,99.99
2017-06-14T01:17:55.008Z,99.99
2017-06-14T01:18:55.017Z,99.99
2017-06-14T01:19:55.004Z,99.99
2017-06-14T01:20:54.978Z,99.99
2017-06-14T01:21:54.673Z,99.99
2017-06-14T01:22:54.646Z,99.99
2017-06-14T01:23:54.970Z,99.99
2017-06-14T01:24:54.626Z,99.99
2017-06-14T01:25:54.931Z,99.99
2017-06-14T01:26:54.943Z,99.99
2017-06-14T01:27:54.915Z,99.99
2017-06-14T01:28:54.907Z,99.99
2017-06-14T01:29:54.896Z,99.99
2017-06-14T01:30:54.572Z,99.99
2017-06-14T01:31:54.878Z,99.99
2017-06-14T01:32:54.881Z,99.99
2017-06-14T01:33:54.893Z,99.99
2017-06-14T01:34:54.864Z,99.99
2017-06-14T01:35:54.528Z,99.99
2017-06-14T01:36:54.831Z,99.99
2017-06-14T01:37:54.822Z,99.99
2017-06-14T01:38:54.819Z,99.99
2017-06-14T01:39:54.826Z,99.99
2017-06-14T01:40:54.482Z,99.99
2017-06-14T01:41:54.474Z,99.99
2017-06-14T01:42:54.777Z,99.99
2017-06-14T01:43:54.766Z,99.99
2017-06-14T01:44:54.443Z,99.99
2017-06-14T01:45:54.438Z,99.99
2017-06-14T01:46:54.745Z,99.99
2017-06-14T01:47:54.732Z,99.99
2017-06-14T01:48:54.736Z,99.99
2017-06-14T01:49:54.719Z,99.99
2017-06-14T01:50:54.707Z,99.99
2017-06-14T01:51:54.693Z,99.99
2017-06-14T01:52:54.711Z,99.99
2017-06-14T01:53:54.677Z,99.99
2017-06-14T01:54:54.669Z,99.99
2017-06-14T01:55:54.662Z,99.99
2017-06-14T01:56:54.333Z,99.99
2017-06-14T01:57:54.642Z,99.99
2017-06-14T01:58:54.630Z,99.99
2017-06-14T01:59:54.638Z,99.99
2017-06-14T02:00:54.611Z,99.99
2017-06-14T02:01:54.614Z,99.99
2017-06-14T02:02:54.592Z,99.99
2017-06-14T02:03:54.596Z,99.99
2017-06-14T02:04:54.259Z,99.99
2017-06-14T02:05:54.563Z,99.99
2017-06-14T02:06:54.237Z,99.99
2017-06-14T02:07:54.543Z,99.99
2017-06-14T02:08:54.221Z,99.99
2017-06-14T02:09:54.534Z,99.99
2017-06-14T02:10:54.546Z,99.99
2017-06-14T02:11:54.193Z,99.99
2017-06-14T02:12:54.505Z,99.99
2017-06-14T02:13:54.493Z,99.99
2017-06-14T02:14:54.479Z,99.99
2017-06-14T02:15:54.155Z,99.99
2017-06-14T02:16:54.458Z,99.99
2017-06-14T02:17:54.137Z,99.99
2017-06-14T02:18:54.441Z,99.99
2017-06-14T02:19:54.117Z,99.99
2017-06-14T02:20:54.429Z,99.99
2017-06-14T02:21:54.415Z,99.99
2017-06-14T02:22:54.403Z,99.99
2017-06-14T02:23:54.409Z,99.99
2017-06-14T02:24:54.076Z,99.99
2017-06-14T02:25:54.062Z,99.99
2017-06-14T02:26:54.048Z,99.99
2017-06-14T02:27:54.353Z,99.99
2017-06-14T02:28:54.351Z,99.99
2017-06-14T02:29:54.340Z,99.99
2017-06-14T02:30:54.349Z,99.99
2017-06-14T02:31:54.004Z,99.99
2017-06-14T02:32:53.993Z,99.99
2017-06-14T02:33:54.299Z,99.99
2017-06-14T02:34:53.973Z,99.99
2017-06-14T02:35:53.966Z,99.99
2017-06-14T02:36:54.285Z,99.99
2017-06-14T02:37:53.949Z,99.99
2017-06-14T02:38:54.253Z,99.99
2017-06-14T02:39:54.243Z,99.99
2017-06-14T02:40:54.232Z,99.99
2017-06-14T02:41:54.225Z,99.99
2017-06-14T02:42:54.219Z,99.99
2017-06-14T02:43:54.205Z,99.99
2017-06-14T02:44:54.193Z,99.99
2017-06-14T02:45:53.867Z,99.99
2017-06-14T02:46:54.175Z,99.99
2017-06-14T02:47:54.166Z,99.99
2017-06-14T02:48:53.849Z,99.99
2017-06-14T02:49:54.158Z,99.99
2017-06-14T02:50:54.137Z,99.99
2017-06-14T02:51:53.830Z,99.99
2017-06-14T02:52:54.114Z,99.99
2017-06-14T02:53:54.108Z,99.99
2017-06-14T02:54:53.781Z,99.99
2017-06-14T02:55:54.093Z,99.99
2017-06-14T02:56:54.077Z,99.99
2017-06-14T02:57:53.753Z,99.99
2017-06-14T02:58:54.066Z,99.99
2017-06-14T02:59:53.734Z,99.99
2017-06-14T03:00:54.038Z,99.99
2017-06-14T03:01:54.030Z,99.99
2017-06-14T03:02:54.021Z,99.99
2017-06-14T03:03:54.012Z,99.99
2017-06-14T03:04:53.687Z,99.99
2017-06-14T03:05:54.025Z,99.99
2017-06-14T03:06:53.665Z,99.99
2017-06-14T03:07:53.971Z,99.99
2017-06-14T03:08:53.960Z,99.99
2017-06-14T03:09:53.972Z,99.99
2017-06-14T03:10:53.631Z,99.99
2017-06-14T03:11:53.640Z,99.99
2017-06-14T03:12:53.922Z,99.99
2017-06-14T03:13:53.914Z,99.99
2017-06-14T03:14:53.925Z,99.99
2017-06-14T03:15:53.581Z,99.99
2017-06-14T03:16:53.892Z,99.99
2017-06-14T03:17:53.879Z,99.99
2017-06-14T03:18:53.549Z,99.99
2017-06-14T03:19:53.857Z,99.99
2017-06-14T03:20:53.847Z,99.99
2017-06-14T03:21:53.837Z,99.99
2017-06-14T03:22:53.511Z,99.99
2017-06-14T03:23:53.822Z,99.99
2017-06-14T03:24:53.812Z,99.99
2017-06-14T03:25:53.482Z,99.99
2017-06-14T03:26:53.787Z,99.99
2017-06-14T03:27:53.464Z,99.99
2017-06-14T03:28:53.792Z,99.99
2017-06-14T03:29:53.761Z,99.99
2017-06-14T03:30:53.436Z,99.99
2017-06-14T03:31:53.424Z,99.99
2017-06-14T03:32:53.759Z,99.99
2017-06-14T03:33:53.406Z,99.99
2017-06-14T03:34:53.711Z,99.99
2017-06-14T03:35:53.704Z,99.99
2017-06-14T03:36:53.381Z,99.99
2017-06-14T03:37:53.704Z,99.99
2017-06-14T03:38:53.356Z,99.99
2017-06-14T03:39:53.664Z,99.99
2017-06-14T03:40:53.673Z,99.99
2017-06-14T03:41:53.346Z,99.99
2017-06-14T03:42:53.634Z,99.99
2017-06-14T03:43:53.312Z,99.99
2017-06-14T03:44:53.628Z,99.99
2017-06-14T03:45:53.647Z,99.99
2017-06-14T03:46:53.614Z,99.99
2017-06-14T03:47:53.270Z,99.99
2017-06-14T03:48:53.262Z,99.99
2017-06-14T03:49:53.569Z,99.99
2017-06-14T03:50:53.562Z,99.99
2017-06-14T03:51:53.569Z,99.99
2017-06-14T03:52:53.541Z,99.99
2017-06-14T03:53:53.555Z,99.99
2017-06-14T03:54:53.207Z,99.99
2017-06-14T03:55:53.511Z,99.99
2017-06-14T03:56:53.504Z,99.99
2017-06-14T03:57:53.177Z,99.99
2017-06-14T03:58:53.167Z,99.99
2017-06-14T03:59:53.166Z,99.99
2017-06-14T04:00:53.467Z,99.99
2017-06-14T04:01:53.463Z,99.99
2017-06-14T04:02:53.132Z,99.99
2017-06-14T04:03:53.455Z,99.99
2017-06-14T04:04:53.429Z,99.99
2017-06-14T04:05:53.418Z,99.99
2017-06-14T04:06:53.421Z,99.99
2017-06-14T04:07:53.400Z,99.99
2017-06-14T04:08:53.390Z,99.99
2017-06-14T04:09:53.382Z,99.99
2017-06-14T04:10:53.058Z,99.99
2017-06-14T04:11:53.047Z,99.99
2017-06-14T04:12:53.039Z,99.99
2017-06-14T04:13:53.349Z,99.99
2017-06-14T04:14:53.035Z,99.99
2017-06-14T04:15:53.327Z,99.99
2017-06-14T04:16:53.317Z,99.99
2017-06-14T04:17:52.993Z,99.99
2017-06-14T04:18:53.301Z,99.99
2017-06-14T04:19:52.974Z,99.99
2017-06-14T04:20:52.963Z,99.99
2017-06-14T04:21:52.956Z,99.99
2017-06-14T04:22:52.949Z,99.99
2017-06-14T04:23:53.255Z,99.99
2017-06-14T04:24:53.263Z,99.99
2017-06-14T04:25:53.237Z,99.99
2017-06-14T04:26:52.912Z,99.99
2017-06-14T04:27:53.223Z,99.99
2017-06-14T04:28:52.894Z,99.99
2017-06-14T04:29:53.204Z,99.99
2017-06-14T04:30:52.875Z,99.99
2017-06-14T04:31:53.182Z,99.99
2017-06-14T04:32:53.196Z,99.99
2017-06-14T04:33:53.176Z,99.99
2017-06-14T04:34:52.840Z,99.99
2017-06-14T04:35:53.150Z,99.99
2017-06-14T04:36:52.825Z,99.99
2017-06-14T04:37:52.823Z,99.99
2017-06-14T04:38:52.810Z,99.99
2017-06-14T04:39:52.798Z,99.99
2017-06-14T04:40:52.790Z,99.99
2017-06-14T04:41:53.096Z,99.99
2017-06-14T04:42:52.794Z,99.99
2017-06-14T04:43:52.767Z,99.99
2017-06-14T04:44:52.759Z,99.99
2017-06-14T04:45:53.080Z,99.99
2017-06-14T04:46:53.058Z,99.99
2017-06-14T04:47:52.732Z,99.99
2017-06-14T04:48:53.066Z,99.99
2017-06-14T04:49:52.719Z,99.99
2017-06-14T04:50:52.712Z,99.99
2017-06-14T04:51:52.703Z,99.99
2017-06-14T04:52:53.007Z,99.99
2017-06-14T04:53:52.998Z,99.99
2017-06-14T04:54:52.990Z,99.99
2017-06-14T04:55:52.667Z,99.99
2017-06-14T04:56:52.979Z,99.99
2017-06-14T04:57:52.652Z,99.99
2017-06-14T04:58:52.986Z,99.99
2017-06-14T04:59:52.639Z,99.99
2017-06-14T05:00:52.978Z,99.99
2017-06-14T05:01:52.940Z,99.99
2017-06-14T05:02:52.929Z,99.99
2017-06-14T05:03:52.924Z,99.99
2017-06-14T05:04:52.914Z,99.99
2017-06-14T05:05:52.906Z,99.99
2017-06-14T05:06:52.606Z,99.99
2017-06-14T05:07:52.577Z,99.99
2017-06-14T05:08:52.904Z,99.99
2017-06-14T05:09:52.877Z,99.99
2017-06-14T05:10:52.869Z,99.99
2017-06-14T05:11:52.566Z,99.99
2017-06-14T05:12:52.855Z,99.99
2017-06-14T05:13:52.847Z,99.99
2017-06-14T05:14:52.857Z,99.99
2017-06-14T05:15:52.831Z,99.99
2017-06-14T05:16:52.833Z,99.99
2017-06-14T05:17:52.516Z,99.99
2017-06-14T05:18:52.812Z,99.99
2017-06-14T05:19:52.808Z,99.99
2017-06-14T05:20:52.482Z,99.99
2017-06-14T05:21:52.497Z,99.99
2017-06-14T05:22:52.469Z,99.99
2017-06-14T05:23:52.463Z,99.99
2017-06-14T05:24:52.768Z,99.99
2017-06-14T05:25:52.444Z,99.99
2017-06-14T05:26:52.755Z,99.99
2017-06-14T05:27:52.747Z,99.99
2017-06-14T05:28:52.458Z,99.99
2017-06-14T05:29:52.736Z,99.99
2017-06-14T05:30:52.412Z,99.99
2017-06-14T05:31:52.401Z,99.99
2017-06-14T05:32:52.396Z,99.99
2017-06-14T05:33:52.706Z,99.99
2017-06-14T05:34:52.701Z,99.99
2017-06-14T05:35:52.693Z,99.99
2017-06-14T05:36:52.684Z,99.99
2017-06-14T05:37:52.365Z,99.99
2017-06-14T05:38:52.673Z,99.99
2017-06-14T05:39:52.352Z,99.99
2017-06-14T05:40:52.668Z,99.99
2017-06-14T05:41:52.654Z,99.99
2017-06-14T05:42:52.649Z,99.99
2017-06-14T05:43:52.643Z,99.99
2017-06-14T05:44:52.317Z,99.99
2017-06-14T05:45:52.627Z,99.99
2017-06-14T05:46:52.623Z,99.99
2017-06-14T05:47:52.633Z,99.99
2017-06-14T05:48:52.659Z,99.99
2017-06-14T05:49:52.603Z,99.99
2017-06-14T05:50:52.283Z,99.99
2017-06-14T05:51:52.277Z,99.99
2017-06-14T05:52:52.584Z,99.99
2017-06-14T05:53:52.590Z,99.99
2017-06-14T05:54:52.255Z,99.99
2017-06-14T05:55:52.579Z,99.99
2017-06-14T05:56:52.247Z,99.99
2017-06-14T05:57:52.757Z,99.99
2017-06-14T05:58:52.552Z,99.99
2017-06-14T05:59:52.570Z,99.99
2017-06-14T06:00:52.244Z,99.99
2017-06-14T06:01:52.559Z,99.99
2017-06-14T06:02:52.561Z,99.99
2017-06-14T06:03:52.547Z,99.99
2017-06-14T06:04:52.222Z,99.99
2017-06-14T06:05:52.545Z,99.99
2017-06-14T06:06:52.557Z,99.99
2017-06-14T06:07:52.528Z,99.99
2017-06-14T06:08:52.520Z,99.99
2017-06-14T06:09:52.510Z,99.99
2017-06-14T06:10:52.506Z,99.99
2017-06-14T06:11:52.503Z,99.99
2017-06-14T06:12:52.501Z,99.99
2017-06-14T06:13:52.497Z,99.99
2017-06-14T06:14:52.168Z,99.99
2017-06-14T06:15:52.482Z,99.99
2017-06-14T06:16:52.474Z,99.99
2017-06-14T06:17:52.148Z,99.99
2017-06-14T06:18:52.144Z,99.99
2017-06-14T06:19:52.506Z,99.99
2017-06-14T06:20:52.150Z,99.99
2017-06-14T06:21:52.469Z,99.99
2017-06-14T06:22:52.536Z,99.99
2017-06-14T06:23:52.462Z,99.95
2017-06-14T06:24:52.116Z,98.9
2017-06-14T06:25:52.447Z,99.19
2017-06-14T06:26:52.104Z,98.33
2017-06-14T06:27:52.423Z,96.99
2017-06-14T06:28:52.122Z,95.46
2017-06-14T06:29:52.411Z,94.17
2017-06-14T06:30:52.422Z,93.69
2017-06-14T06:31:52.398Z,92.74
2017-06-14T06:32:52.075Z,93.5
2017-06-14T06:33:52.071Z,91.02
2017-06-14T06:34:52.066Z,89.96
2017-06-14T06:35:52.061Z,88.62
2017-06-14T06:36:52.377Z,88.76
2017-06-14T06:37:52.371Z,88
2017-06-14T06:38:52.052Z,88.76
2017-06-14T06:39:52.362Z,87.08
2017-06-14T06:40:52.363Z,83.11
2017-06-14T06:41:52.376Z,79.6
2017-06-14T06:42:52.031Z,78.11
2017-06-14T06:43:52.368Z,76.77
2017-06-14T06:44:52.345Z,75.81
2017-06-14T06:45:52.343Z,75.52
2017-06-14T06:46:52.023Z,75.9
2017-06-14T06:47:52.032Z,76
2017-06-14T06:48:52.112Z,75.33
2017-06-14T06:49:52.007Z,75.68
2017-06-14T06:50:52.328Z,76.15
2017-06-14T06:51:52.322Z,76.21
2017-06-14T06:52:52.322Z,77.46
2017-06-14T06:53:52.317Z,78.99
2017-06-14T06:54:52.117Z,78.89
2017-06-14T06:55:51.990Z,78.99
2017-06-14T06:56:52.304Z,78.95
2017-06-14T06:57:51.991Z,79.24
2017-06-14T06:58:51.980Z,79.81
2017-06-14T06:59:51.974Z,81.44
2017-06-14T07:00:52.294Z,83.26
2017-06-14T07:01:51.969Z,82.68
2017-06-14T07:02:52.297Z,75.77
2017-06-14T07:03:52.284Z,72.63
2017-06-14T07:04:52.282Z,65.88
2017-06-14T07:05:51.957Z,59.82
2017-06-14T07:06:51.962Z,57.18
2017-06-14T07:07:52.016Z,52.52
2017-06-14T07:08:52.273Z,50.84
2017-06-14T07:09:52.284Z,51.39
2017-06-14T07:10:51.949Z,51.56
2017-06-14T07:11:52.270Z,50.42
2017-06-14T07:12:52.267Z,50.23
2017-06-14T07:13:52.383Z,49.75
2017-06-14T07:14:52.272Z,50.98
2017-06-14T07:15:52.287Z,50.59
2017-06-14T07:16:52.294Z,50.32
2017-06-14T07:17:51.944Z,50.59
2017-06-14T07:18:52.272Z,50.01
2017-06-14T07:19:52.281Z,51.43
2017-06-14T07:20:52.265Z,53.53
2017-06-14T07:21:52.270Z,54.94
2017-06-14T07:22:52.284Z,55.68
2017-06-14T07:23:52.266Z,56.36
2017-06-14T07:24:52.265Z,56.55
2017-06-14T07:25:52.265Z,55.13
2017-06-14T07:26:52.269Z,54.03
2017-06-14T07:27:52.267Z,54.03
2017-06-14T07:28:52.264Z,52.69
2017-06-14T07:29:51.948Z,49.75
2017-06-14T07:30:52.266Z,46.81
2017-06-14T07:31:52.262Z,46.73
2017-06-14T07:32:51.950Z,45.96
2017-06-14T07:33:52.267Z,46.25
2017-06-14T07:34:52.270Z,46.51
2017-06-14T07:35:52.266Z,47.72
2017-06-14T07:36:52.268Z,48.95
2017-06-14T07:37:51.950Z,50.27
2017-06-14T07:38:52.273Z,50.85
2017-06-14T07:39:52.276Z,49.79
2017-06-14T07:40:51.965Z,49.53
2017-06-14T07:41:51.953Z,48.4
2017-06-14T07:42:52.380Z,47.27
2017-06-14T07:43:52.276Z,44.32
2017-06-14T07:44:52.277Z,43.1
2017-06-14T07:45:51.958Z,40.98
2017-06-14T07:46:52.277Z,39.36
2017-06-14T07:47:52.281Z,38.5
2017-06-14T07:48:52.286Z,38.13
2017-06-14T07:49:52.032Z,38.21
2017-06-14T07:50:52.307Z,38.6
2017-06-14T07:51:52.287Z,39.74
2017-06-14T07:52:51.969Z,39.92
2017-06-14T07:53:51.990Z,41.23
2017-06-14T07:54:52.297Z,41.88
2017-06-14T07:55:52.303Z,41.33
2017-06-14T07:56:52.185Z,40.57
2017-06-14T07:57:52.315Z,40.67
2017-06-14T07:58:52.032Z,41.61
2017-06-14T07:59:51.983Z,43.02
2017-06-14T08:00:51.987Z,45.6
2017-06-14T08:01:52.444Z,46.62
2017-06-14T08:02:52.310Z,45.39
2017-06-14T08:03:51.988Z,46.55
2017-06-14T08:04:52.312Z,45.77
2017-06-14T08:05:51.994Z,43.77
2017-06-14T08:06:52.433Z,42.93
2017-06-14T08:07:52.317Z,43.02
2017-06-14T08:08:52.321Z,43.02
2017-06-14T08:09:52.319Z,42.56
2017-06-14T08:10:52.325Z,41.91
2017-06-14T08:11:52.000Z,42.58
2017-06-14T08:12:52.124Z,41.81
2017-06-14T08:13:52.324Z,40.26
2017-06-14T08:14:52.327Z,43.08
2017-06-14T08:15:52.328Z,39.84
2017-06-14T08:16:52.329Z,37.44
2017-06-14T08:17:52.338Z,36.96
2017-06-14T08:18:52.329Z,37.63
2017-06-14T08:19:52.405Z,38.1
2017-06-14T08:20:52.009Z,39.14
2017-06-14T08:21:52.329Z,41.05
2017-06-14T08:22:52.354Z,41.52
2017-06-14T08:23:52.333Z,42.83
2017-06-14T08:24:52.334Z,44.42
2017-06-14T08:25:52.199Z,46.25
2017-06-14T08:26:52.332Z,46.52
2017-06-14T08:27:52.336Z,46.69
2017-06-14T08:28:52.015Z,49.29
2017-06-14T08:29:52.334Z,49.84
2017-06-14T08:30:52.015Z,48.61
2017-06-14T08:31:52.441Z,45.99
2017-06-14T08:32:52.384Z,46.57
2017-06-14T08:33:52.013Z,47.22
2017-06-14T08:34:52.337Z,50.49
2017-06-14T08:35:52.649Z,53.92
2017-06-14T08:36:52.334Z,54.31
2017-06-14T08:37:52.333Z,54.19
2017-06-14T08:38:52.348Z,54.67
2017-06-14T08:39:52.358Z,54.35
2017-06-14T08:40:52.012Z,55.51
2017-06-14T08:41:52.367Z,59.16
2017-06-14T08:42:52.011Z,57.81
2017-06-14T08:43:52.020Z,55.34
2017-06-14T08:44:52.329Z,52.75
2017-06-14T08:45:52.329Z,52.55
2017-06-14T08:46:52.011Z,53.42
2017-06-14T08:47:52.006Z,53.9
2017-06-14T08:48:52.219Z,53.23
2017-06-14T08:49:52.006Z,53.23
2017-06-14T08:50:52.022Z,54.19
2017-06-14T08:51:52.326Z,53.61
2017-06-14T08:52:52.332Z,54.22
2017-06-14T08:53:52.324Z,55.85
2017-06-14T08:54:52.323Z,57
2017-06-14T08:55:52.330Z,55.34
2017-06-14T08:56:52.323Z,54.99
2017-06-14T08:57:52.463Z,55.27
2017-06-14T08:58:52.323Z,55.01
2017-06-14T08:59:52.323Z,56.65
2017-06-14T09:00:52.321Z,52.99
2017-06-14T09:01:51.998Z,50.87
2017-06-14T09:02:52.316Z,51.04
2017-06-14T09:03:52.314Z,51.88
2017-06-14T09:04:52.314Z,53.49
2017-06-14T09:05:52.317Z,55.99
2017-06-14T09:06:51.991Z,55.86
2017-06-14T09:07:52.313Z,56.92
2017-06-14T09:08:52.326Z,56.73
2017-06-14T09:09:52.309Z,56.63
2017-06-14T09:10:51.989Z,57.81
2017-06-14T09:11:52.308Z,57.71
2017-06-14T09:12:52.304Z,55.82
2017-06-14T09:13:52.322Z,53.52
2017-06-14T09:14:52.322Z,54.99
2017-06-14T09:15:51.983Z,53.19
2017-06-14T09:16:52.299Z,53.38
2017-06-14T09:17:52.304Z,53.96
2017-06-14T09:18:51.978Z,56.93
2017-06-14T09:19:52.300Z,55.33
2017-06-14T09:20:52.303Z,53.5
2017-06-14T09:21:52.301Z,54.08
2017-06-14T09:22:52.318Z,52.06
2017-06-14T09:23:51.973Z,52.54
2017-06-14T09:24:52.295Z,52.08
2017-06-14T09:25:52.295Z,51.89
2017-06-14T09:26:52.294Z,48.54
2017-06-14T09:27:52.305Z,47.29
2017-06-14T09:28:52.292Z,48.52
2017-06-14T09:29:52.292Z,47.65
2017-06-14T09:30:52.290Z,47.39
2017-06-14T09:31:52.290Z,46.98
2017-06-14T09:32:51.970Z,47.85
2017-06-14T09:33:52.287Z,49.48
2017-06-14T09:34:51.971Z,51.12
2017-06-14T09:35:51.966Z,49.58
2017-06-14T09:36:51.970Z,51.31
2017-06-14T09:37:51.989Z,50.93
2017-06-14T09:38:52.287Z,49.87
2017-06-14T09:39:52.289Z,49.68
2017-06-14T09:40:52.287Z,49
2017-06-14T09:41:51.968Z,50.25
2017-06-14T09:42:52.289Z,50.83
2017-06-14T09:43:52.287Z,50.45
2017-06-14T09:44:52.306Z,51.21
2017-06-14T09:45:52.286Z,53.05
2017-06-14T09:46:52.286Z,52.66
2017-06-14T09:47:52.289Z,52.27
2017-06-14T09:48:51.965Z,53.91
2017-06-14T09:49:51.967Z,51.5
2017-06-14T09:50:51.962Z,50.45
2017-06-14T09:51:52.303Z,51.21
2017-06-14T09:52:52.284Z,52.25
2017-06-14T09:53:52.285Z,53.11
2017-06-14T09:54:51.962Z,51.29
2017-06-14T09:55:52.284Z,53.31
2017-06-14T09:56:52.296Z,49.36
2017-06-14T09:57:51.957Z,51.09
2017-06-14T09:58:52.289Z,49.74
2017-06-14T09:59:51.970Z,48.97
2017-06-14T10:00:52.279Z,49.36
2017-06-14T10:01:51.957Z,50.71
2017-06-14T10:02:51.981Z,53.02
2017-06-14T10:03:52.297Z,49.55
2017-06-14T10:04:51.969Z,48.21
2017-06-14T10:05:51.959Z,46.57
2017-06-14T10:06:52.290Z,49.36
2017-06-14T10:07:51.954Z,50.3
2017-06-14T10:08:52.279Z,50.99
2017-06-14T10:09:52.274Z,51.48
2017-06-14T10:10:52.276Z,53.21
2017-06-14T10:11:51.962Z,53.11
2017-06-14T10:12:52.273Z,50.06
2017-06-14T10:13:51.952Z,50.04
2017-06-14T10:14:51.952Z,49.38
2017-06-14T10:15:52.289Z,49.38
2017-06-14T10:16:52.271Z,54.2
2017-06-14T10:17:52.274Z,51.21
2017-06-14T10:18:52.268Z,49
2017-06-14T10:19:52.267Z,47.77
2017-06-14T10:20:52.271Z,46.59
2017-06-14T10:21:52.267Z,46.69
2017-06-14T10:22:51.950Z,47.27
2017-06-14T10:23:52.287Z,46.5
2017-06-14T10:24:52.268Z,46.67
2017-06-14T10:25:51.947Z,46.47
2017-06-14T10:26:52.266Z,46.57
2017-06-14T10:27:51.943Z,46.67
2017-06-14T10:28:52.269Z,46.95
2017-06-14T10:29:52.262Z,47.08
2017-06-14T10:30:51.944Z,49.48
2017-06-14T10:31:52.264Z,48.13
2017-06-14T10:32:52.261Z,48.81
2017-06-14T10:33:51.945Z,48.81
2017-06-14T10:34:52.263Z,51.21
2017-06-14T10:35:51.938Z,50.54
2017-06-14T10:36:51.942Z,48.44
2017-06-14T10:37:52.259Z,47.39
2017-06-14T10:38:52.281Z,45.75
2017-06-14T10:39:51.943Z,46.69
2017-06-14T10:40:52.279Z,46.5
2017-06-14T10:41:51.940Z,47.17
2017-06-14T10:42:52.263Z,49.99
2017-06-14T10:43:51.940Z,48.64
2017-06-14T10:44:52.258Z,46.81
2017-06-14T10:45:52.262Z,48.25
2017-06-14T10:46:52.257Z,48.83
2017-06-14T10:47:52.260Z,47.97
2017-06-14T10:48:52.262Z,47.65
2017-06-14T10:49:52.255Z,47.85
2017-06-14T10:50:51.938Z,49.87
2017-06-14T10:51:52.254Z,51.89
2017-06-14T10:52:52.254Z,50.35
2017-06-14T10:53:52.258Z,51.7
2017-06-14T10:54:52.253Z,48.23
2017-06-14T10:55:51.933Z,49
2017-06-14T10:56:52.264Z,51.21
2017-06-14T10:57:52.253Z,51.21
2017-06-14T10:58:51.933Z,50.45
2017-06-14T10:59:52.253Z,49.68
2017-06-14T11:00:52.283Z,53.91
2017-06-14T11:01:52.253Z,48.9
2017-06-14T11:02:52.251Z,43.82
2017-06-14T11:03:51.930Z,46.11
2017-06-14T11:04:52.477Z,46.59
2017-06-14T11:05:52.266Z,48.33
2017-06-14T11:06:52.255Z,46.5
2017-06-14T11:07:51.930Z,46.11
2017-06-14T11:08:52.273Z,48.13
2017-06-14T11:09:52.256Z,46.59
2017-06-14T11:10:52.251Z,44.67
2017-06-14T11:11:52.249Z,43.9
2017-06-14T11:12:51.929Z,45.05
2017-06-14T11:13:51.927Z,45.92
2017-06-14T11:14:51.929Z,46.59
2017-06-14T11:15:52.257Z,46.78
2017-06-14T11:16:52.250Z,46.81
2017-06-14T11:17:52.249Z,46.59
2017-06-14T11:18:51.925Z,47.27
2017-06-14T11:19:52.248Z,46.59
2017-06-14T11:20:51.931Z,45.53
2017-06-14T11:21:52.247Z,44.96
2017-06-14T11:22:52.265Z,46.11
2017-06-14T11:23:52.255Z,48.61
2017-06-14T11:24:51.932Z,50.63
2017-06-14T11:25:52.246Z,50.54
2017-06-14T11:26:52.246Z,46.59
2017-06-14T11:27:52.246Z,46.21
2017-06-14T11:28:51.924Z,45.15
2017-06-14T11:29:52.247Z,45.63
2017-06-14T11:30:51.922Z,46.21
2017-06-14T11:31:52.245Z,46.21
2017-06-14T11:32:52.243Z,45.92
2017-06-14T11:33:52.241Z,47.08
2017-06-14T11:34:51.926Z,46.01
2017-06-14T11:35:51.922Z,45.05
2017-06-14T11:36:51.922Z,46.01
2017-06-14T11:37:52.243Z,49.1
2017-06-14T11:38:52.241Z,49.38
2017-06-14T11:39:52.245Z,48.43
2017-06-14T11:40:52.243Z,47.49
2017-06-14T11:41:52.242Z,48.54
2017-06-14T11:42:52.241Z,49.41
2017-06-14T11:43:51.919Z,49.02
2017-06-14T11:44:52.256Z,48.44
2017-06-14T11:45:51.920Z,48.54
2017-06-14T11:46:51.922Z,47.67
2017-06-14T11:47:51.919Z,46.62
2017-06-14T11:48:52.242Z,47.29
2017-06-14T11:49:51.919Z,48.16
2017-06-14T11:50:51.920Z,46.42
2017-06-14T11:51:52.238Z,46.33
2017-06-14T11:52:52.263Z,47.39
2017-06-14T11:53:51.921Z,47.49
2017-06-14T11:54:52.242Z,46.11
2017-06-14T11:55:52.239Z,45.05
2017-06-14T11:56:52.240Z,45.53
2017-06-14T11:57:51.919Z,44.96
2017-06-14T11:58:51.918Z,46.11
2017-06-14T11:59:51.918Z,45.92
2017-06-14T12:00:52.252Z,48.81
2017-06-14T12:01:52.239Z,49.48
2017-06-14T12:02:51.918Z,51.41
2017-06-14T12:03:52.242Z,50.25
2017-06-14T12:04:52.240Z,48.03
2017-06-14T12:05:52.236Z,46.81
2017-06-14T12:06:52.241Z,48.54
2017-06-14T12:07:52.250Z,48.54
2017-06-14T12:08:52.237Z,46.52
2017-06-14T12:09:52.237Z,48.25
2017-06-14T12:10:52.237Z,47.77
2017-06-14T12:11:52.235Z,46.91
2017-06-14T12:12:52.256Z,47.1
2017-06-14T12:13:51.916Z,47.67
2017-06-14T12:14:52.237Z,47.67
2017-06-14T12:15:52.254Z,45.73
2017-06-14T12:16:52.253Z,46.42
2017-06-14T12:17:52.237Z,45.46
2017-06-14T12:18:51.916Z,46.33
2017-06-14T12:19:51.918Z,46.81
2017-06-14T12:20:51.915Z,45.65
2017-06-14T12:21:52.237Z,45.94
2017-06-14T12:22:52.239Z,46.62
2017-06-14T12:23:52.237Z,45.56
2017-06-14T12:24:52.237Z,45.94
2017-06-14T12:25:52.236Z,46.42
2017-06-14T12:26:52.234Z,46.81
2017-06-14T12:27:52.244Z,46.62
2017-06-14T12:28:52.236Z,46.62
2017-06-14T12:29:51.914Z,47.58
2017-06-14T12:30:52.242Z,47.49
2017-06-14T12:31:51.937Z,47
2017-06-14T12:32:52.233Z,47.19
2017-06-14T12:33:52.253Z,46.42
2017-06-14T12:34:52.237Z,44.69
2017-06-14T12:35:52.236Z,44.79
2017-06-14T12:36:52.253Z,48.44
2017-06-14T12:37:52.232Z,49.22
2017-06-14T12:38:51.914Z,49.79
2017-06-14T12:39:51.932Z,47.77
2017-06-14T12:40:51.922Z,48.54
2017-06-14T12:41:52.238Z,47.39
2017-06-14T12:42:52.236Z,47.39
2017-06-14T12:43:52.239Z,48.06
2017-06-14T12:44:51.915Z,47
2017-06-14T12:45:52.250Z,46.62
2017-06-14T12:46:52.240Z,46.14
2017-06-14T12:47:52.257Z,44.31
2017-06-14T12:48:51.936Z,46.14
2017-06-14T12:49:52.258Z,46.33
2017-06-14T12:50:52.238Z,46.71
2017-06-14T12:51:52.241Z,48.06
2017-06-14T12:52:51.914Z,47.39
2017-06-14T12:53:52.238Z,43.15
2017-06-14T12:54:51.918Z,43.82